sensor_id;sensor_type;location;lat;lon;timestamp;P1;durP1;ratioP1;P2;durP2;ratioP2
54247;SDS011;40161;39.768;2.722;2023-05-10T00:01:55;2.88;;;1.60;;
54247;SDS011;40161;39.768;2.722;2023-05-10T00:04:21;5.32;;;1.60;;
54247;SDS011;40161;39.768;2.722;2023-05-10T00:06:46;3.35;;;1.30;;
54247;SDS011;40161;39.768;2.722;2023-05-10T00:09:12;3.63;;;1.85;;
54247;SDS011;40161;39.768;2.722;2023-05-10T00:11:37;3.80;;;1.60;;
54247;SDS011;40161;39.768;2.722;2023-05-10T00:14:03;3.50;;;1.63;;
54247;SDS011;40161;39.768;2.722;2023-05-10T00:16:29;2.25;;;1.40;;
54247;SDS011;40161;39.768;2.722;2023-05-10T00:18:55;4.10;;;1.75;;
54247;SDS011;40161;39.768;2.722;2023-05-10T00:21:20;3.47;;;1.15;;
54247;SDS011;40161;39.768;2.722;2023-05-10T00:23:46;3.50;;;1.60;;
54247;SDS011;40161;39.768;2.722;2023-05-10T00:26:11;3.30;;;1.40;;
54247;SDS011;40161;39.768;2.722;2023-05-10T00:28:37;2.28;;;1.25;;
54247;SDS011;40161;39.768;2.722;2023-05-10T00:31:02;3.00;;;1.10;;
54247;SDS011;40161;39.768;2.722;2023-05-10T00:33:28;2.80;;;1.10;;
54247;SDS011;40161;39.768;2.722;2023-05-10T00:35:53;2.67;;;1.35;;
54247;SDS011;40161;39.768;2.722;2023-05-10T00:38:19;2.78;;;1.10;;
54247;SDS011;40161;39.768;2.722;2023-05-10T00:40:44;4.65;;;1.38;;
54247;SDS011;40161;39.768;2.722;2023-05-10T00:43:10;2.65;;;0.90;;
54247;SDS011;40161;39.768;2.722;2023-05-10T00:45:36;2.85;;;1.20;;
54247;SDS011;40161;39.768;2.722;2023-05-10T00:48:02;4.85;;;0.90;;
54247;SDS011;40161;39.768;2.722;2023-05-10T00:50:29;3.22;;;0.90;;
54247;SDS011;40161;39.768;2.722;2023-05-10T00:52:56;3.60;;;0.80;;
54247;SDS011;40161;39.768;2.722;2023-05-10T00:55:23;2.63;;;0.82;;
54247;SDS011;40161;39.768;2.722;2023-05-10T00:57:49;3.53;;;0.80;;
54247;SDS011;40161;39.768;2.722;2023-05-10T01:00:14;4.50;;;1.10;;
54247;SDS011;40161;39.768;2.722;2023-05-10T01:02:44;5.28;;;0.82;;
54247;SDS011;40161;39.768;2.722;2023-05-10T01:05:11;2.28;;;0.70;;
54247;SDS011;40161;39.768;2.722;2023-05-10T01:07:36;5.30;;;1.08;;
54247;SDS011;40161;39.768;2.722;2023-05-10T01:10:02;2.15;;;0.68;;
54247;SDS011;40161;39.768;2.722;2023-05-10T01:12:28;3.25;;;0.80;;
54247;SDS011;40161;39.768;2.722;2023-05-10T01:14:54;2.67;;;0.60;;
54247;SDS011;40161;39.768;2.722;2023-05-10T01:17:20;4.47;;;0.70;;
54247;SDS011;40161;39.768;2.722;2023-05-10T01:19:47;1.30;;;0.50;;
54247;SDS011;40161;39.768;2.722;2023-05-10T01:33:27;0.88;;;0.40;;
54247;SDS011;40161;39.768;2.722;2023-05-10T01:36:05;1.05;;;0.43;;
54247;SDS011;40161;39.768;2.722;2023-05-10T01:41:45;1.95;;;0.38;;
54247;SDS011;40161;39.768;2.722;2023-05-10T01:47:10;1.02;;;0.45;;
54247;SDS011;40161;39.768;2.722;2023-05-10T01:49:40;0.80;;;0.43;;
54247;SDS011;40161;39.768;2.722;2023-05-10T01:54:38;1.15;;;0.38;;
54247;SDS011;40161;39.768;2.722;2023-05-10T01:57:09;1.58;;;0.43;;
54247;SDS011;40161;39.768;2.722;2023-05-10T01:59:39;1.10;;;0.45;;
54247;SDS011;40161;39.768;2.722;2023-05-10T02:02:08;0.30;;;0.30;;
54247;SDS011;40161;39.768;2.722;2023-05-10T02:04:37;1.35;;;0.35;;
54247;SDS011;40161;39.768;2.722;2023-05-10T02:16:04;0.28;;;0.28;;
54247;SDS011;40161;39.768;2.722;2023-05-10T02:18:30;1.48;;;0.40;;
54247;SDS011;40161;39.768;2.722;2023-05-10T02:20:58;1.45;;;0.28;;
54247;SDS011;40161;39.768;2.722;2023-05-10T03:08:50;0.47;;;0.20;;
54247;SDS011;40161;39.768;2.722;2023-05-10T03:16:45;0.43;;;0.30;;
54247;SDS011;40161;39.768;2.722;2023-05-10T03:19:16;1.58;;;0.50;;
54247;SDS011;40161;39.768;2.722;2023-05-10T03:21:49;0.82;;;0.35;;
54247;SDS011;40161;39.768;2.722;2023-05-10T03:24:18;0.82;;;0.20;;
54247;SDS011;40161;39.768;2.722;2023-05-10T03:26:46;1.92;;;0.43;;
54247;SDS011;40161;39.768;2.722;2023-05-10T03:29:13;1.95;;;0.30;;
54247;SDS011;40161;39.768;2.722;2023-05-10T03:31:40;1.05;;;0.32;;
54247;SDS011;40161;39.768;2.722;2023-05-10T03:34:06;2.63;;;0.40;;
54247;SDS011;40161;39.768;2.722;2023-05-10T03:36:32;1.08;;;0.30;;
54247;SDS011;40161;39.768;2.722;2023-05-10T03:38:58;0.25;;;0.15;;
54247;SDS011;40161;39.768;2.722;2023-05-10T03:41:23;0.68;;;0.22;;
54247;SDS011;40161;39.768;2.722;2023-05-10T03:43:50;0.50;;;0.30;;
54247;SDS011;40161;39.768;2.722;2023-05-10T03:46:16;3.00;;;0.40;;
54247;SDS011;40161;39.768;2.722;2023-05-10T03:48:41;1.70;;;0.30;;
54247;SDS011;40161;39.768;2.722;2023-05-10T03:51:07;1.13;;;0.40;;
54247;SDS011;40161;39.768;2.722;2023-05-10T03:53:33;1.27;;;0.43;;
54247;SDS011;40161;39.768;2.722;2023-05-10T03:55:58;0.43;;;0.30;;
54247;SDS011;40161;39.768;2.722;2023-05-10T03:58:24;0.82;;;0.30;;
54247;SDS011;40161;39.768;2.722;2023-05-10T04:00:50;1.90;;;0.30;;
54247;SDS011;40161;39.768;2.722;2023-05-10T04:03:16;1.75;;;0.55;;
54247;SDS011;40161;39.768;2.722;2023-05-10T04:05:42;0.95;;;0.30;;
54247;SDS011;40161;39.768;2.722;2023-05-10T04:08:08;1.05;;;0.38;;
54247;SDS011;40161;39.768;2.722;2023-05-10T04:10:34;0.45;;;0.30;;
54247;SDS011;40161;39.768;2.722;2023-05-10T04:12:59;1.35;;;0.60;;
54247;SDS011;40161;39.768;2.722;2023-05-10T04:15:25;0.75;;;0.40;;
54247;SDS011;40161;39.768;2.722;2023-05-10T04:17:50;1.67;;;0.40;;
54247;SDS011;40161;39.768;2.722;2023-05-10T04:20:16;2.20;;;0.50;;
54247;SDS011;40161;39.768;2.722;2023-05-10T04:22:42;2.20;;;0.43;;
54247;SDS011;40161;39.768;2.722;2023-05-10T04:25:08;1.48;;;0.40;;
54247;SDS011;40161;39.768;2.722;2023-05-10T04:27:34;1.35;;;0.40;;
54247;SDS011;40161;39.768;2.722;2023-05-10T04:29:59;2.00;;;0.40;;
54247;SDS011;40161;39.768;2.722;2023-05-10T04:32:25;2.00;;;0.50;;
54247;SDS011;40161;39.768;2.722;2023-05-10T04:34:50;1.38;;;0.40;;
54247;SDS011;40161;39.768;2.722;2023-05-10T04:37:17;1.90;;;0.43;;
54247;SDS011;40161;39.768;2.722;2023-05-10T04:39:43;0.75;;;0.40;;
54247;SDS011;40161;39.768;2.722;2023-05-10T04:42:08;2.58;;;0.50;;
54247;SDS011;40161;39.768;2.722;2023-05-10T04:44:34;0.77;;;0.40;;
54247;SDS011;40161;39.768;2.722;2023-05-10T04:47:00;2.20;;;0.45;;
54247;SDS011;40161;39.768;2.722;2023-05-10T04:49:27;2.25;;;0.52;;
54247;SDS011;40161;39.768;2.722;2023-05-10T04:51:53;0.38;;;0.30;;
54247;SDS011;40161;39.768;2.722;2023-05-10T04:54:18;2.03;;;0.40;;
54247;SDS011;40161;39.768;2.722;2023-05-10T04:56:44;1.40;;;0.30;;
54247;SDS011;40161;39.768;2.722;2023-05-10T04:59:09;0.88;;;0.45;;
54247;SDS011;40161;39.768;2.722;2023-05-10T05:01:35;2.17;;;0.63;;
54247;SDS011;40161;39.768;2.722;2023-05-10T05:04:01;1.58;;;0.50;;
54247;SDS011;40161;39.768;2.722;2023-05-10T05:06:26;12.43;;;1.20;;
54247;SDS011;40161;39.768;2.722;2023-05-10T05:08:52;5.38;;;0.95;;
54247;SDS011;40161;39.768;2.722;2023-05-10T05:11:18;3.67;;;0.90;;
54247;SDS011;40161;39.768;2.722;2023-05-10T05:13:43;2.40;;;0.70;;
54247;SDS011;40161;39.768;2.722;2023-05-10T05:16:09;3.80;;;0.70;;
54247;SDS011;40161;39.768;2.722;2023-05-10T05:18:35;4.93;;;0.60;;
54247;SDS011;40161;39.768;2.722;2023-05-10T05:21:01;2.05;;;0.60;;
54247;SDS011;40161;39.768;2.722;2023-05-10T05:23:27;5.43;;;1.27;;
54247;SDS011;40161;39.768;2.722;2023-05-10T05:25:52;12.52;;;1.40;;
54247;SDS011;40161;39.768;2.722;2023-05-10T05:28:19;1.30;;;0.50;;
54247;SDS011;40161;39.768;2.722;2023-05-10T05:30:45;4.50;;;0.50;;
54247;SDS011;40161;39.768;2.722;2023-05-10T05:33:13;1.48;;;0.50;;
54247;SDS011;40161;39.768;2.722;2023-05-10T05:35:39;3.65;;;0.68;;
54247;SDS011;40161;39.768;2.722;2023-05-10T05:38:04;7.57;;;1.48;;
54247;SDS011;40161;39.768;2.722;2023-05-10T05:40:30;7.43;;;1.33;;
54247;SDS011;40161;39.768;2.722;2023-05-10T05:42:55;7.95;;;1.70;;
54247;SDS011;40161;39.768;2.722;2023-05-10T05:45:21;6.82;;;1.70;;
54247;SDS011;40161;39.768;2.722;2023-05-10T05:47:46;4.93;;;1.30;;
54247;SDS011;40161;39.768;2.722;2023-05-10T05:50:12;3.47;;;1.20;;
54247;SDS011;40161;39.768;2.722;2023-05-10T05:52:38;4.07;;;0.80;;
54247;SDS011;40161;39.768;2.722;2023-05-10T05:55:03;0.80;;;0.43;;
54247;SDS011;40161;39.768;2.722;2023-05-10T05:57:29;4.45;;;1.00;;
54247;SDS011;40161;39.768;2.722;2023-05-10T05:59:54;12.75;;;2.05;;
54247;SDS011;40161;39.768;2.722;2023-05-10T06:02:20;10.90;;;1.58;;
54247;SDS011;40161;39.768;2.722;2023-05-10T06:04:45;7.13;;;1.30;;
54247;SDS011;40161;39.768;2.722;2023-05-10T06:07:11;4.63;;;1.10;;
54247;SDS011;40161;39.768;2.722;2023-05-10T06:09:37;3.22;;;1.05;;
54247;SDS011;40161;39.768;2.722;2023-05-10T06:12:02;3.28;;;0.77;;
54247;SDS011;40161;39.768;2.722;2023-05-10T06:14:28;5.03;;;1.20;;
54247;SDS011;40161;39.768;2.722;2023-05-10T06:16:53;2.70;;;0.70;;
54247;SDS011;40161;39.768;2.722;2023-05-10T06:19:19;5.05;;;0.85;;
54247;SDS011;40161;39.768;2.722;2023-05-10T06:21:45;3.25;;;0.60;;
54247;SDS011;40161;39.768;2.722;2023-05-10T06:24:10;2.95;;;0.70;;
54247;SDS011;40161;39.768;2.722;2023-05-10T06:26:36;3.75;;;0.93;;
54247;SDS011;40161;39.768;2.722;2023-05-10T06:29:01;2.40;;;0.73;;
54247;SDS011;40161;39.768;2.722;2023-05-10T06:31:27;3.72;;;0.70;;
54247;SDS011;40161;39.768;2.722;2023-05-10T06:33:52;1.65;;;0.50;;
54247;SDS011;40161;39.768;2.722;2023-05-10T06:36:18;2.00;;;0.80;;
54247;SDS011;40161;39.768;2.722;2023-05-10T06:38:44;8.25;;;2.28;;
54247;SDS011;40161;39.768;2.722;2023-05-10T06:41:09;8.75;;;2.15;;
54247;SDS011;40161;39.768;2.722;2023-05-10T06:43:35;5.63;;;1.52;;
54247;SDS011;40161;39.768;2.722;2023-05-10T06:46:02;14.43;;;1.67;;
54247;SDS011;40161;39.768;2.722;2023-05-10T06:48:27;8.07;;;1.05;;
54247;SDS011;40161;39.768;2.722;2023-05-10T06:50:53;18.23;;;2.05;;
54247;SDS011;40161;39.768;2.722;2023-05-10T06:53:18;6.18;;;0.88;;
54247;SDS011;40161;39.768;2.722;2023-05-10T06:55:44;3.30;;;0.68;;
54247;SDS011;40161;39.768;2.722;2023-05-10T06:58:09;14.88;;;2.85;;
54247;SDS011;40161;39.768;2.722;2023-05-10T07:00:35;16.83;;;2.55;;
54247;SDS011;40161;39.768;2.722;2023-05-10T07:03:05;10.15;;;2.30;;
54247;SDS011;40161;39.768;2.722;2023-05-10T07:05:31;4.38;;;0.95;;
54247;SDS011;40161;39.768;2.722;2023-05-10T07:07:56;3.40;;;0.88;;
54247;SDS011;40161;39.768;2.722;2023-05-10T07:10:22;3.97;;;0.98;;
54247;SDS011;40161;39.768;2.722;2023-05-10T07:12:48;5.07;;;1.10;;
54247;SDS011;40161;39.768;2.722;2023-05-10T07:15:13;5.78;;;0.70;;
54247;SDS011;40161;39.768;2.722;2023-05-10T07:17:39;4.32;;;0.90;;
54247;SDS011;40161;39.768;2.722;2023-05-10T07:20:04;5.20;;;0.95;;
54247;SDS011;40161;39.768;2.722;2023-05-10T07:22:30;3.88;;;0.70;;
54247;SDS011;40161;39.768;2.722;2023-05-10T07:24:56;4.43;;;0.80;;
54247;SDS011;40161;39.768;2.722;2023-05-10T07:27:21;4.75;;;0.90;;
54247;SDS011;40161;39.768;2.722;2023-05-10T07:29:47;4.35;;;0.90;;
54247;SDS011;40161;39.768;2.722;2023-05-10T07:32:13;1.90;;;0.50;;
54247;SDS011;40161;39.768;2.722;2023-05-10T07:34:38;2.50;;;0.60;;
54247;SDS011;40161;39.768;2.722;2023-05-10T07:37:04;5.18;;;0.93;;
54247;SDS011;40161;39.768;2.722;2023-05-10T07:39:31;8.55;;;1.23;;
54247;SDS011;40161;39.768;2.722;2023-05-10T07:41:56;9.85;;;1.58;;
54247;SDS011;40161;39.768;2.722;2023-05-10T07:44:22;6.35;;;1.20;;
54247;SDS011;40161;39.768;2.722;2023-05-10T07:46:48;7.22;;;1.15;;
54247;SDS011;40161;39.768;2.722;2023-05-10T07:49:14;8.55;;;1.42;;
54247;SDS011;40161;39.768;2.722;2023-05-10T07:51:39;6.97;;;1.55;;
54247;SDS011;40161;39.768;2.722;2023-05-10T07:54:05;7.22;;;1.45;;
54247;SDS011;40161;39.768;2.722;2023-05-10T07:56:31;5.55;;;1.20;;
54247;SDS011;40161;39.768;2.722;2023-05-10T07:58:58;7.18;;;1.25;;
54247;SDS011;40161;39.768;2.722;2023-05-10T08:01:25;5.53;;;1.25;;
54247;SDS011;40161;39.768;2.722;2023-05-10T08:03:52;10.95;;;1.60;;
54247;SDS011;40161;39.768;2.722;2023-05-10T08:06:19;7.45;;;1.23;;
54247;SDS011;40161;39.768;2.722;2023-05-10T08:08:45;6.40;;;1.50;;
54247;SDS011;40161;39.768;2.722;2023-05-10T08:11:15;9.82;;;1.70;;
54247;SDS011;40161;39.768;2.722;2023-05-10T08:13:41;8.70;;;1.67;;
54247;SDS011;40161;39.768;2.722;2023-05-10T08:16:07;8.85;;;1.10;;
54247;SDS011;40161;39.768;2.722;2023-05-10T08:18:32;6.10;;;1.20;;
54247;SDS011;40161;39.768;2.722;2023-05-10T08:20:58;8.02;;;1.65;;
54247;SDS011;40161;39.768;2.722;2023-05-10T08:23:23;10.15;;;2.83;;
54247;SDS011;40161;39.768;2.722;2023-05-10T08:25:49;8.45;;;1.60;;
54247;SDS011;40161;39.768;2.722;2023-05-10T08:28:14;8.18;;;1.58;;
54247;SDS011;40161;39.768;2.722;2023-05-10T08:30:40;8.35;;;1.27;;
54247;SDS011;40161;39.768;2.722;2023-05-10T08:33:05;8.07;;;1.55;;
54247;SDS011;40161;39.768;2.722;2023-05-10T08:35:31;8.07;;;1.85;;
54247;SDS011;40161;39.768;2.722;2023-05-10T08:37:58;5.80;;;1.65;;
54247;SDS011;40161;39.768;2.722;2023-05-10T08:40:23;9.70;;;1.63;;
54247;SDS011;40161;39.768;2.722;2023-05-10T08:42:51;6.30;;;1.35;;
54247;SDS011;40161;39.768;2.722;2023-05-10T08:45:24;7.72;;;1.50;;
54247;SDS011;40161;39.768;2.722;2023-05-10T08:47:52;4.90;;;1.80;;
54247;SDS011;40161;39.768;2.722;2023-05-10T08:50:19;6.68;;;1.42;;
54247;SDS011;40161;39.768;2.722;2023-05-10T08:52:46;7.82;;;1.55;;
54247;SDS011;40161;39.768;2.722;2023-05-10T08:55:15;6.00;;;1.50;;
54247;SDS011;40161;39.768;2.722;2023-05-10T08:57:41;5.35;;;1.40;;
54247;SDS011;40161;39.768;2.722;2023-05-10T09:00:07;6.10;;;1.30;;
54247;SDS011;40161;39.768;2.722;2023-05-10T09:02:33;9.85;;;1.60;;
54247;SDS011;40161;39.768;2.722;2023-05-10T09:05:00;9.48;;;2.00;;
54247;SDS011;40161;39.768;2.722;2023-05-10T09:07:26;8.63;;;1.73;;
54247;SDS011;40161;39.768;2.722;2023-05-10T09:09:52;9.25;;;2.55;;
54247;SDS011;40161;39.768;2.722;2023-05-10T09:12:19;11.55;;;3.45;;
54247;SDS011;40161;39.768;2.722;2023-05-10T09:14:44;9.57;;;2.58;;
54247;SDS011;40161;39.768;2.722;2023-05-10T09:17:11;9.60;;;2.50;;
54247;SDS011;40161;39.768;2.722;2023-05-10T09:19:37;9.60;;;2.85;;
54247;SDS011;40161;39.768;2.722;2023-05-10T09:22:03;7.90;;;2.20;;
54247;SDS011;40161;39.768;2.722;2023-05-10T09:24:29;9.55;;;2.03;;
54247;SDS011;40161;39.768;2.722;2023-05-10T09:26:56;11.50;;;2.60;;
54247;SDS011;40161;39.768;2.722;2023-05-10T09:29:23;9.48;;;2.45;;
54247;SDS011;40161;39.768;2.722;2023-05-10T09:31:52;14.52;;;6.10;;
54247;SDS011;40161;39.768;2.722;2023-05-10T09:34:29;11.57;;;4.10;;
54247;SDS011;40161;39.768;2.722;2023-05-10T09:36:58;12.18;;;2.20;;
54247;SDS011;40161;39.768;2.722;2023-05-10T09:39:32;7.93;;;1.75;;
54247;SDS011;40161;39.768;2.722;2023-05-10T09:42:03;11.30;;;1.83;;
54247;SDS011;40161;39.768;2.722;2023-05-10T09:44:30;13.45;;;2.38;;
54247;SDS011;40161;39.768;2.722;2023-05-10T09:46:57;9.55;;;1.90;;
54247;SDS011;40161;39.768;2.722;2023-05-10T09:49:23;10.05;;;2.75;;
54247;SDS011;40161;39.768;2.722;2023-05-10T09:54:31;10.30;;;2.40;;
54247;SDS011;40161;39.768;2.722;2023-05-10T09:56:58;7.25;;;1.63;;
54247;SDS011;40161;39.768;2.722;2023-05-10T09:59:27;11.02;;;2.60;;
54247;SDS011;40161;39.768;2.722;2023-05-10T10:01:57;9.48;;;2.28;;
54247;SDS011;40161;39.768;2.722;2023-05-10T10:04:24;22.42;;;8.43;;
54247;SDS011;40161;39.768;2.722;2023-05-10T10:07:03;12.80;;;2.78;;
54247;SDS011;40161;39.768;2.722;2023-05-10T10:09:29;13.27;;;4.03;;
54247;SDS011;40161;39.768;2.722;2023-05-10T10:11:55;12.07;;;2.78;;
54247;SDS011;40161;39.768;2.722;2023-05-10T10:14:22;11.48;;;3.25;;
54247;SDS011;40161;39.768;2.722;2023-05-10T10:16:51;16.65;;;4.50;;
54247;SDS011;40161;39.768;2.722;2023-05-10T10:19:20;7.25;;;1.90;;
54247;SDS011;40161;39.768;2.722;2023-05-10T10:21:47;8.02;;;1.40;;
54247;SDS011;40161;39.768;2.722;2023-05-10T10:24:14;7.75;;;1.42;;
54247;SDS011;40161;39.768;2.722;2023-05-10T10:26:40;8.90;;;1.55;;
54247;SDS011;40161;39.768;2.722;2023-05-10T10:32:12;7.13;;;1.20;;
54247;SDS011;40161;39.768;2.722;2023-05-10T10:34:53;8.32;;;1.52;;
54247;SDS011;40161;39.768;2.722;2023-05-10T10:37:21;10.27;;;1.80;;
54247;SDS011;40161;39.768;2.722;2023-05-10T10:39:48;6.95;;;1.60;;
54247;SDS011;40161;39.768;2.722;2023-05-10T10:42:14;8.32;;;1.83;;
54247;SDS011;40161;39.768;2.722;2023-05-10T10:45:13;9.20;;;2.15;;
54247;SDS011;40161;39.768;2.722;2023-05-10T10:47:38;10.13;;;1.67;;
54247;SDS011;40161;39.768;2.722;2023-05-10T10:50:04;8.68;;;2.05;;
54247;SDS011;40161;39.768;2.722;2023-05-10T10:55:03;6.70;;;1.27;;
54247;SDS011;40161;39.768;2.722;2023-05-10T11:02:51;12.80;;;1.75;;
54247;SDS011;40161;39.768;2.722;2023-05-10T11:07:58;8.95;;;1.45;;
54247;SDS011;40161;39.768;2.722;2023-05-10T11:10:25;7.68;;;1.42;;
54247;SDS011;40161;39.768;2.722;2023-05-10T11:12:52;6.72;;;1.30;;
54247;SDS011;40161;39.768;2.722;2023-05-10T11:15:59;7.20;;;1.73;;
54247;SDS011;40161;39.768;2.722;2023-05-10T11:18:19;6.50;;;1.70;;
54247;SDS011;40161;39.768;2.722;2023-05-10T11:20:52;5.95;;;1.50;;
54247;SDS011;40161;39.768;2.722;2023-05-10T11:23:22;5.72;;;1.50;;
54247;SDS011;40161;39.768;2.722;2023-05-10T11:25:49;8.05;;;1.63;;
54247;SDS011;40161;39.768;2.722;2023-05-10T11:28:16;5.38;;;1.52;;
54247;SDS011;40161;39.768;2.722;2023-05-10T11:30:44;5.40;;;1.45;;
54247;SDS011;40161;39.768;2.722;2023-05-10T11:33:14;5.53;;;1.45;;
54247;SDS011;40161;39.768;2.722;2023-05-10T11:35:42;6.85;;;1.20;;
54247;SDS011;40161;39.768;2.722;2023-05-10T11:38:12;6.72;;;1.30;;
54247;SDS011;40161;39.768;2.722;2023-05-10T11:40:39;6.82;;;1.17;;
54247;SDS011;40161;39.768;2.722;2023-05-10T11:43:05;6.90;;;1.35;;
54247;SDS011;40161;39.768;2.722;2023-05-10T11:45:32;5.72;;;1.20;;
54247;SDS011;40161;39.768;2.722;2023-05-10T11:47:58;6.60;;;1.20;;
54247;SDS011;40161;39.768;2.722;2023-05-10T11:50:25;6.18;;;1.60;;
54247;SDS011;40161;39.768;2.722;2023-05-10T11:52:53;6.18;;;2.33;;
54247;SDS011;40161;39.768;2.722;2023-05-10T11:55:20;5.55;;;1.17;;
54247;SDS011;40161;39.768;2.722;2023-05-10T11:57:46;4.65;;;1.00;;
54247;SDS011;40161;39.768;2.722;2023-05-10T12:00:12;4.03;;;1.05;;
54247;SDS011;40161;39.768;2.722;2023-05-10T12:02:39;5.03;;;1.48;;
54247;SDS011;40161;39.768;2.722;2023-05-10T12:05:05;4.03;;;1.05;;
54247;SDS011;40161;39.768;2.722;2023-05-10T12:07:32;5.22;;;1.10;;
54247;SDS011;40161;39.768;2.722;2023-05-10T12:10:10;4.88;;;1.40;;
54247;SDS011;40161;39.768;2.722;2023-05-10T12:12:43;4.68;;;1.30;;
54247;SDS011;40161;39.768;2.722;2023-05-10T12:15:10;6.47;;;1.50;;
54247;SDS011;40161;39.768;2.722;2023-05-10T12:17:57;5.53;;;1.10;;
54247;SDS011;40161;39.768;2.722;2023-05-10T12:20:23;6.47;;;1.23;;
54247;SDS011;40161;39.768;2.722;2023-05-10T12:22:53;4.00;;;1.20;;
54247;SDS011;40161;39.768;2.722;2023-05-10T12:25:23;6.38;;;1.05;;
54247;SDS011;40161;39.768;2.722;2023-05-10T12:27:55;4.63;;;1.05;;
54247;SDS011;40161;39.768;2.722;2023-05-10T12:32:51;5.13;;;1.27;;
54247;SDS011;40161;39.768;2.722;2023-05-10T12:35:17;4.28;;;0.88;;
54247;SDS011;40161;39.768;2.722;2023-05-10T12:37:48;4.50;;;1.40;;
54247;SDS011;40161;39.768;2.722;2023-05-10T12:40:15;5.13;;;1.08;;
54247;SDS011;40161;39.768;2.722;2023-05-10T12:42:40;3.10;;;0.98;;
54247;SDS011;40161;39.768;2.722;2023-05-10T12:45:07;3.55;;;0.77;;
54247;SDS011;40161;39.768;2.722;2023-05-10T12:47:34;6.35;;;1.88;;
54247;SDS011;40161;39.768;2.722;2023-05-10T12:50:00;3.60;;;1.13;;
54247;SDS011;40161;39.768;2.722;2023-05-10T12:52:27;6.00;;;1.00;;
54247;SDS011;40161;39.768;2.722;2023-05-10T12:54:53;5.15;;;0.95;;
54247;SDS011;40161;39.768;2.722;2023-05-10T12:57:19;5.63;;;1.20;;
54247;SDS011;40161;39.768;2.722;2023-05-10T12:59:45;4.93;;;1.10;;
54247;SDS011;40161;39.768;2.722;2023-05-10T13:02:11;4.35;;;0.80;;
54247;SDS011;40161;39.768;2.722;2023-05-10T13:04:36;4.18;;;1.10;;
54247;SDS011;40161;39.768;2.722;2023-05-10T13:07:05;4.93;;;1.17;;
54247;SDS011;40161;39.768;2.722;2023-05-10T13:09:34;6.00;;;1.60;;
54247;SDS011;40161;39.768;2.722;2023-05-10T13:11:59;6.72;;;1.33;;
54247;SDS011;40161;39.768;2.722;2023-05-10T13:14:25;3.20;;;0.80;;
54247;SDS011;40161;39.768;2.722;2023-05-10T13:16:51;4.18;;;1.17;;
54247;SDS011;40161;39.768;2.722;2023-05-10T13:19:16;4.18;;;1.10;;
54247;SDS011;40161;39.768;2.722;2023-05-10T13:21:42;5.47;;;0.98;;
54247;SDS011;40161;39.768;2.722;2023-05-10T13:24:09;3.28;;;0.90;;
54247;SDS011;40161;39.768;2.722;2023-05-10T13:26:35;6.55;;;1.25;;
54247;SDS011;40161;39.768;2.722;2023-05-10T13:29:02;4.05;;;1.13;;
54247;SDS011;40161;39.768;2.722;2023-05-10T13:31:28;5.30;;;1.00;;
54247;SDS011;40161;39.768;2.722;2023-05-10T13:33:53;4.18;;;1.10;;
54247;SDS011;40161;39.768;2.722;2023-05-10T13:36:19;5.65;;;1.05;;
54247;SDS011;40161;39.768;2.722;2023-05-10T13:38:45;4.03;;;1.00;;
54247;SDS011;40161;39.768;2.722;2023-05-10T13:41:10;5.25;;;1.00;;
54247;SDS011;40161;39.768;2.722;2023-05-10T13:43:36;3.50;;;0.90;;
54247;SDS011;40161;39.768;2.722;2023-05-10T13:46:01;6.93;;;1.20;;
54247;SDS011;40161;39.768;2.722;2023-05-10T13:48:27;4.13;;;1.30;;
54247;SDS011;40161;39.768;2.722;2023-05-10T13:50:53;4.88;;;0.82;;
54247;SDS011;40161;39.768;2.722;2023-05-10T13:53:19;4.00;;;0.93;;
54247;SDS011;40161;39.768;2.722;2023-05-10T13:55:44;4.05;;;0.93;;
54247;SDS011;40161;39.768;2.722;2023-05-10T13:58:10;2.72;;;0.80;;
54247;SDS011;40161;39.768;2.722;2023-05-10T14:00:35;5.05;;;1.10;;
54247;SDS011;40161;39.768;2.722;2023-05-10T14:03:01;4.30;;;0.98;;
54247;SDS011;40161;39.768;2.722;2023-05-10T14:05:27;3.90;;;0.90;;
54247;SDS011;40161;39.768;2.722;2023-05-10T14:07:52;3.80;;;1.10;;
54247;SDS011;40161;39.768;2.722;2023-05-10T14:10:18;3.55;;;0.80;;
54247;SDS011;40161;39.768;2.722;2023-05-10T14:12:44;4.28;;;1.05;;
54247;SDS011;40161;39.768;2.722;2023-05-10T14:15:09;3.33;;;1.02;;
54247;SDS011;40161;39.768;2.722;2023-05-10T14:17:36;5.22;;;1.00;;
54247;SDS011;40161;39.768;2.722;2023-05-10T14:20:02;2.72;;;0.88;;
54247;SDS011;40161;39.768;2.722;2023-05-10T14:22:28;5.22;;;1.05;;
54247;SDS011;40161;39.768;2.722;2023-05-10T14:24:54;3.47;;;1.00;;
54247;SDS011;40161;39.768;2.722;2023-05-10T14:27:20;5.45;;;1.20;;
54247;SDS011;40161;39.768;2.722;2023-05-10T14:29:46;5.82;;;0.93;;
54247;SDS011;40161;39.768;2.722;2023-05-10T14:32:12;5.97;;;1.10;;
54247;SDS011;40161;39.768;2.722;2023-05-10T14:34:38;3.75;;;0.88;;
54247;SDS011;40161;39.768;2.722;2023-05-10T14:37:03;5.75;;;1.00;;
54247;SDS011;40161;39.768;2.722;2023-05-10T14:39:29;4.32;;;1.02;;
54247;SDS011;40161;39.768;2.722;2023-05-10T14:41:55;3.65;;;1.10;;
54247;SDS011;40161;39.768;2.722;2023-05-10T14:44:21;5.03;;;1.10;;
54247;SDS011;40161;39.768;2.722;2023-05-10T14:46:46;2.30;;;0.70;;
54247;SDS011;40161;39.768;2.722;2023-05-10T14:49:13;4.05;;;0.80;;
54247;SDS011;40161;39.768;2.722;2023-05-10T14:51:39;4.15;;;1.05;;
54247;SDS011;40161;39.768;2.722;2023-05-10T14:54:04;4.80;;;0.90;;
54247;SDS011;40161;39.768;2.722;2023-05-10T14:56:31;3.95;;;0.82;;
54247;SDS011;40161;39.768;2.722;2023-05-10T14:58:57;3.10;;;0.80;;
54247;SDS011;40161;39.768;2.722;2023-05-10T15:01:22;6.05;;;1.02;;
54247;SDS011;40161;39.768;2.722;2023-05-10T15:03:48;4.85;;;0.82;;
54247;SDS011;40161;39.768;2.722;2023-05-10T15:06:14;4.03;;;1.30;;
54247;SDS011;40161;39.768;2.722;2023-05-10T15:08:42;5.57;;;0.90;;
54247;SDS011;40161;39.768;2.722;2023-05-10T15:11:08;5.82;;;0.80;;
54247;SDS011;40161;39.768;2.722;2023-05-10T15:13:34;5.20;;;0.80;;
54247;SDS011;40161;39.768;2.722;2023-05-10T15:15:59;7.03;;;1.30;;
54247;SDS011;40161;39.768;2.722;2023-05-10T15:18:26;5.97;;;1.20;;
54247;SDS011;40161;39.768;2.722;2023-05-10T15:20:51;5.13;;;0.80;;
54247;SDS011;40161;39.768;2.722;2023-05-10T15:23:17;3.95;;;1.02;;
54247;SDS011;40161;39.768;2.722;2023-05-10T15:25:42;9.10;;;1.10;;
54247;SDS011;40161;39.768;2.722;2023-05-10T15:28:08;3.63;;;0.90;;
54247;SDS011;40161;39.768;2.722;2023-05-10T15:30:33;5.13;;;1.10;;
54247;SDS011;40161;39.768;2.722;2023-05-10T15:32:59;5.53;;;0.80;;
54247;SDS011;40161;39.768;2.722;2023-05-10T15:35:25;3.88;;;0.70;;
54247;SDS011;40161;39.768;2.722;2023-05-10T15:37:51;3.88;;;0.80;;
54247;SDS011;40161;39.768;2.722;2023-05-10T15:40:17;6.07;;;1.13;;
54247;SDS011;40161;39.768;2.722;2023-05-10T15:42:42;5.72;;;0.90;;
54247;SDS011;40161;39.768;2.722;2023-05-10T15:45:08;4.40;;;1.20;;
54247;SDS011;40161;39.768;2.722;2023-05-10T15:47:34;3.13;;;0.88;;
54247;SDS011;40161;39.768;2.722;2023-05-10T15:50:00;6.50;;;1.10;;
54247;SDS011;40161;39.768;2.722;2023-05-10T15:52:25;5.22;;;0.98;;
54247;SDS011;40161;39.768;2.722;2023-05-10T15:54:51;4.25;;;0.90;;
54247;SDS011;40161;39.768;2.722;2023-05-10T15:57:16;2.85;;;0.70;;
54247;SDS011;40161;39.768;2.722;2023-05-10T15:59:42;5.72;;;1.15;;
54247;SDS011;40161;39.768;2.722;2023-05-10T16:02:08;3.60;;;1.00;;
54247;SDS011;40161;39.768;2.722;2023-05-10T16:04:35;6.03;;;1.77;;
54247;SDS011;40161;39.768;2.722;2023-05-10T16:07:01;5.82;;;0.85;;
54247;SDS011;40161;39.768;2.722;2023-05-10T16:09:26;1.85;;;0.65;;
54247;SDS011;40161;39.768;2.722;2023-05-10T16:11:52;4.65;;;0.70;;
54247;SDS011;40161;39.768;2.722;2023-05-10T16:14:18;3.90;;;0.90;;
54247;SDS011;40161;39.768;2.722;2023-05-10T16:16:47;4.72;;;0.95;;
54247;SDS011;40161;39.768;2.722;2023-05-10T16:19:12;3.05;;;0.93;;
54247;SDS011;40161;39.768;2.722;2023-05-10T16:21:38;3.05;;;0.70;;